| time (UTC) | temp C | wind direction | speed KPH | gust KPH | rain 1hr cm | rain 24hr cm | rain mn cm | humidity % | barometer mb |
| 20260506191024 | 20 | 149 | 0.0 | 1.6 | 0.00 | 0.00 | 0.00 | 56 | 1019.7 |
| 20260506190521 | 20 | 168 | 1.6 | 3.2 | 0.00 | 0.00 | 0.00 | 59 | 1019.5 |
| 20260506190019 | 20 | 242 | 3.2 | 4.8 | 0.00 | 0.00 | 0.00 | 58 | 1019.6 |
| 20260506185515 | 19 | 166 | 0.0 | 0.0 | 0.00 | 0.00 | 0.00 | 59 | 1019.4 |
| 20260506185012 | 19 | 138 | 0.0 | 0.0 | 0.00 | 0.00 | 0.00 | 61 | 1019.6 |
| 20260506184509 | 19 | 161 | 3.2 | 4.8 | 0.00 | 0.00 | 0.00 | 59 | 1019.7 |
| 20260506184006 | 19 | 161 | 3.2 | 4.8 | 0.00 | 0.00 | 0.00 | 59 | 1019.6 |
| 20260506183502 | 18 | 210 | 0.0 | 0.0 | 0.00 | 0.00 | 0.00 | 62 | 1019.8 |
| 20260506182959 | 18 | 210 | 0.0 | 0.0 | 0.00 | 0.00 | 0.00 | 62 | 1019.6 |
| 20260506182456 | 18 | 141 | 0.0 | 0.0 | 0.00 | 0.00 | 0.00 | 61 | 1019.7 |
| 20260506181953 | -17 | 0.0 | 0.0 | 0.00 | 0.00 | 0.00 | 1019.8 | ||
| 20260506181451 | -17 | 0.0 | 0.0 | 0.00 | 0.00 | 0.00 | 1019.8 | ||
| 20260506180947 | -17 | 0.0 | 0.0 | 0.00 | 0.00 | 0.00 | 1020.0 | ||
| 20260506180444 | 17 | 222 | 0.0 | 0.0 | 0.00 | 0.00 | 0.00 | 66 | 1019.8 |
| 20260506175941 | 17 | 222 | 0.0 | 0.0 | 0.00 | 0.00 | 0.00 | 66 | 1020.0 |
| 20260506175437 | -17 | 0.0 | 0.0 | 0.00 | 0.00 | 0.00 | 1019.9 | ||
| 20260506174934 | -17 | 0.0 | 0.0 | 0.00 | 0.00 | 0.00 | 1020.0 | ||
| 20260506174432 | 17 | 222 | 0.0 | 0.0 | 0.00 | 0.00 | 0.00 | 67 | 1020.0 |
| 20260506173929 | 17 | 222 | 0.0 | 0.0 | 0.00 | 0.00 | 0.00 | 67 | 1019.8 |
| 20260506173426 | 17 | 223 | 0.0 | 0.0 | 0.00 | 0.00 | 0.00 | 67 | 1019.9 |
| 20260506172923 | 16 | 221 | 0.0 | 0.0 | 0.00 | 0.00 | 0.00 | 70 | 1020.0 |
| 20260506172420 | 16 | 220 | 0.0 | 0.0 | 0.00 | 0.00 | 0.00 | 69 | 1020.0 |
| 20260506171917 | 16 | 220 | 0.0 | 0.0 | 0.00 | 0.00 | 0.00 | 69 | 1019.8 |
| 20260506171414 | 16 | 223 | 0.0 | 0.0 | 0.00 | 0.00 | 0.00 | 69 | 1020.1 |
| 20260506170912 | -17 | 0.0 | 0.0 | 0.00 | 0.00 | 0.00 | 1020.0 | ||
| 20260506170407 | 17 | 239 | 1.6 | 1.6 | 0.00 | 0.00 | 0.00 | 67 | 1020.2 |
| 20260506165907 | 17 | 239 | 1.6 | 1.6 | 0.00 | 0.00 | 0.00 | 67 | 1020.0 |
| 20260506165404 | 17 | 242 | 4.8 | 6.4 | 0.00 | 0.00 | 0.00 | 68 | 1020.1 |
| 20260506164901 | 17 | 242 | 4.8 | 6.4 | 0.00 | 0.00 | 0.00 | 68 | 1019.8 |
| 20260506164357 | 16 | 231 | 0.0 | 0.0 | 0.00 | 0.00 | 0.00 | 70 | 1019.8 |
| 20260506163856 | -17 | 0.0 | 0.0 | 0.00 | 0.00 | 0.00 | 1020.2 | ||
| 20260506163355 | -17 | 0.0 | 0.0 | 0.00 | 0.00 | 0.00 | 1020.1 | ||
| 20260506162850 | -17 | 0.0 | 0.0 | 0.00 | 0.00 | 0.00 | 1019.9 | ||
| 20260506162349 | -17 | 0.0 | 0.0 | 0.00 | 0.00 | 0.00 | 1020.0 | ||
| 20260506161846 | -17 | 0.0 | 0.0 | 0.00 | 0.00 | 0.00 | 1020.4 | ||
| 20260506161343 | -17 | 0.0 | 0.0 | 0.00 | 0.00 | 0.00 | 1020.2 | ||
| 20260506160841 | -17 | 0.0 | 0.0 | 0.00 | 0.00 | 0.00 | 1020.0 | ||
| 20260506160338 | -17 | 0.0 | 0.0 | 0.00 | 0.00 | 0.00 | 1020.2 | ||
| 20260506155836 | 14 | 229 | 0.0 | 0.0 | 0.00 | 0.00 | 0.00 | 76 | 1020.0 |
| 20260506155332 | 14 | 229 | 0.0 | 0.0 | 0.00 | 0.00 | 0.00 | 76 | 1020.1 |
| 20260506153444 | 14 | 232 | 3.2 | 4.8 | 0.00 | 0.00 | 0.00 | 75 | 1019.9 |
| 20260506152942 | 14 | 225 | 0.0 | 0.0 | 0.00 | 0.00 | 0.00 | 76 | 1020.2 |
| 20260506152439 | 13 | 226 | 0.0 | 0.0 | 0.00 | 0.00 | 0.00 | 77 | 1020.0 |
| 20260506151937 | 13 | 226 | 0.0 | 0.0 | 0.00 | 0.00 | 0.00 | 77 | 1020.4 |
| 20260506151434 | 13 | 226 | 0.0 | 0.0 | 0.00 | 0.00 | 0.00 | 77 | 1020.3 |
| 20260506150932 | 13 | 225 | 0.0 | 0.0 | 0.00 | 0.00 | 0.00 | 78 | 1020.3 |
| 20260506150427 | 13 | 226 | 1.6 | 1.6 | 0.00 | 0.00 | 0.00 | 78 | 1020.1 |
| 20260506145925 | -17 | 0.0 | 0.0 | 0.00 | 0.00 | 0.00 | 1020.0 | ||
| 20260506145421 | 13 | 212 | 0.0 | 0.0 | 0.00 | 0.00 | 0.00 | 78 | 1020.1 |
| 20260506144919 | 13 | 212 | 0.0 | 0.0 | 0.00 | 0.00 | 0.00 | 78 | 1020.4 |
| 20260506144415 | 13 | 209 | 0.0 | 0.0 | 0.00 | 0.00 | 0.00 | 78 | 1020.1 |
| 20260506143913 | 13 | 172 | 0.0 | 0.0 | 0.00 | 0.00 | 0.00 | 81 | 1020.0 |
| 20260506143410 | 13 | 172 | 0.0 | 0.0 | 0.00 | 0.00 | 0.00 | 82 | 1020.0 |
| 20260506142908 | -17 | 0.0 | 0.0 | 0.00 | 0.00 | 0.00 | 1020.0 | ||
| 20260506142406 | -17 | 0.0 | 0.0 | 0.00 | 0.00 | 0.00 | 1019.9 | ||
| 20260506141904 | -17 | 0.0 | 0.0 | 0.00 | 0.00 | 0.00 | 1019.9 | ||
| 20260506141402 | -17 | 0.0 | 0.0 | 0.00 | 0.00 | 0.00 | 1019.7 | ||
| 20260506140900 | 12 | 131 | 0.0 | 0.0 | 0.00 | 0.00 | 0.00 | 87 | 1019.7 |
| 20260506140356 | 12 | 131 | 0.0 | 0.0 | 0.00 | 0.00 | 0.00 | 87 | 1019.6 |
| 20260506135853 | -17 | 0.0 | 0.0 | 0.00 | 0.00 | 0.00 | 1019.5 | ||
| 20260506135350 | -17 | 0.0 | 0.0 | 0.00 | 0.00 | 0.00 | 1019.7 | ||
| 20260506134846 | -17 | 0.0 | 0.0 | 0.00 | 0.00 | 0.00 | 1019.7 | ||
| 20260506134342 | 10 | 131 | 0.0 | 0.0 | 0.00 | 0.00 | 0.00 | 92 | 1019.3 |
| 20260506133840 | 10 | 131 | 0.0 | 0.0 | 0.00 | 0.00 | 0.00 | 92 | 1019.5 |
| 20260506133336 | -17 | 0.0 | 0.0 | 0.00 | 0.00 | 0.00 | 1019.8 | ||
| 20260506132833 | -17 | 0.0 | 0.0 | 0.00 | 0.00 | 0.00 | 1019.4 | ||
| 20260506132331 | -17 | 0.0 | 0.0 | 0.00 | 0.00 | 0.00 | 1019.5 | ||
| 20260506131828 | 10 | 131 | 0.0 | 0.0 | 0.00 | 0.00 | 0.00 | 92 | 1019.4 |
| 20260506131324 | 10 | 131 | 0.0 | 0.0 | 0.00 | 0.00 | 0.00 | 92 | 1019.3 |
| 20260506130822 | 10 | 131 | 0.0 | 0.0 | 0.00 | 0.00 | 0.00 | 92 | 1019.3 |
| 20260506130318 | -17 | 0.0 | 0.0 | 0.00 | 0.00 | 0.00 | 1019.4 | ||
| 20260506125816 | -17 | 0.0 | 0.0 | 0.00 | 0.00 | 0.00 | 1019.2 | ||
| 20260506125314 | 11 | 131 | 0.0 | 0.0 | 0.00 | 0.00 | 0.00 | 90 | 1019.1 |
| 20260506124813 | 11 | 131 | 0.0 | 0.0 | 0.00 | 0.00 | 0.00 | 90 | 1019.1 |
| 20260506124309 | -17 | 0.0 | 0.0 | 0.00 | 0.00 | 0.00 | 1019.0 | ||
| 20260506123807 | -17 | 0.0 | 0.0 | 0.00 | 0.00 | 0.00 | 1019.1 | ||
| 20260506123305 | -17 | 0.0 | 0.0 | 0.00 | 0.00 | 0.00 | 1019.2 | ||
| 20260506122801 | -17 | 0.0 | 0.0 | 0.00 | 0.00 | 0.00 | 1019.2 | ||
| 20260506122259 | -17 | 0.0 | 0.0 | 0.00 | 0.00 | 0.00 | 1019.0 | ||
| 20260506121757 | -17 | 0.0 | 0.0 | 0.00 | 0.00 | 0.00 | 1019.1 | ||
| 20260506121253 | -17 | 0.0 | 0.0 | 0.00 | 0.00 | 0.00 | 1019.1 | ||
| 20260506120751 | 11 | 131 | 0.0 | 0.0 | 0.00 | 0.00 | 0.00 | 90 | 1019.1 |
| 20260506120249 | 11 | 131 | 0.0 | 0.0 | 0.00 | 0.00 | 0.00 | 90 | 1019.0 |
| 20260506115746 | -17 | 0.0 | 0.0 | 0.00 | 0.00 | 0.00 | 1019.1 | ||
| 20260506115244 | -17 | 0.0 | 0.0 | 0.00 | 0.00 | 0.00 | 1019.2 | ||
| 20260506114741 | -17 | 0.0 | 0.0 | 0.00 | 0.00 | 0.00 | 1019.1 | ||
| 20260506114239 | -17 | 0.0 | 0.0 | 0.00 | 0.00 | 0.00 | 1018.9 | ||
| 20260506113737 | -17 | 0.0 | 0.0 | 0.00 | 0.00 | 0.00 | 1018.9 | ||
| 20260506113234 | -17 | 0.0 | 0.0 | 0.00 | 0.00 | 0.00 | 1018.9 | ||
| 20260506112730 | -17 | 0.0 | 0.0 | 0.00 | 0.00 | 0.00 | 1018.6 | ||
| 20260506112228 | -17 | 0.0 | 0.0 | 0.00 | 0.00 | 0.00 | 1018.8 | ||
| 20260506111725 | -17 | 0.0 | 0.0 | 0.00 | 0.00 | 0.00 | 1018.6 | ||
| 20260506111224 | -17 | 0.0 | 0.0 | 0.00 | 0.00 | 0.00 | 1018.6 | ||
| 20260506110721 | -17 | 0.0 | 0.0 | 0.00 | 0.00 | 0.00 | 1018.5 | ||
| 20260506110218 | -17 | 0.0 | 0.0 | 0.00 | 0.00 | 0.00 | 1018.5 | ||
| 20260506105714 | -17 | 0.0 | 0.0 | 0.00 | 0.00 | 0.00 | 1018.5 | ||
| 20260506105211 | -17 | 0.0 | 0.0 | 0.00 | 0.00 | 0.00 | 1018.4 | ||
| 20260506104710 | -17 | 0.0 | 0.0 | 0.00 | 0.00 | 0.00 | 1018.4 | ||
| 20260506104207 | -17 | 0.0 | 0.0 | 0.00 | 0.00 | 0.00 | 1018.5 | ||
| 20260506103703 | -17 | 0.0 | 0.0 | 0.00 | 0.00 | 0.00 | 1018.4 | ||
| 20260506103200 | -17 | 0.0 | 0.0 | 0.00 | 0.00 | 0.00 | 1018.7 | ||
| 20260506102659 | -17 | 0.0 | 0.0 | 0.00 | 0.00 | 0.00 | 1018.5 | ||
| 20260506102156 | -17 | 0.0 | 0.0 | 0.00 | 0.00 | 0.00 | 1018.5 | ||
| 20260506101652 | -17 | 0.0 | 0.0 | 0.00 | 0.00 | 0.00 | 1018.6 | ||
| 20260506101149 | -17 | 0.0 | 0.0 | 0.00 | 0.00 | 0.00 | 1018.5 | ||
| 20260506100648 | -17 | 0.0 | 0.0 | 0.00 | 0.00 | 0.00 | 1018.4 | ||
| 20260506100145 | -17 | 0.0 | 0.0 | 0.00 | 0.00 | 0.00 | 1018.5 | ||
| 20260506095644 | -17 | 0.0 | 0.0 | 0.00 | 0.00 | 0.00 | 1018.3 | ||
| 20260506095140 | -17 | 0.0 | 0.0 | 0.00 | 0.00 | 0.00 | 1018.6 | ||
| 20260506094638 | -17 | 0.0 | 0.0 | 0.00 | 0.00 | 0.00 | 1018.6 | ||
| 20260506094135 | -17 | 0.0 | 0.0 | 0.00 | 0.00 | 0.00 | 1018.4 | ||
| 20260506093634 | -17 | 0.0 | 0.0 | 0.00 | 0.00 | 0.00 | 1018.4 | ||
| 20260506093130 | -17 | 0.0 | 0.0 | 0.00 | 0.00 | 0.00 | 1018.4 | ||
| 20260506092628 | -17 | 0.0 | 0.0 | 0.00 | 0.00 | 0.00 | 1018.3 | ||
| 20260506092125 | -17 | 0.0 | 0.0 | 0.00 | 0.00 | 0.00 | 1018.3 | ||
| 20260506091623 | -17 | 0.0 | 0.0 | 0.00 | 0.00 | 0.00 | 1018.4 | ||
| 20260506091120 | -17 | 0.0 | 0.0 | 0.00 | 0.00 | 0.00 | 1018.3 | ||
| 20260506090619 | -17 | 0.0 | 0.0 | 0.00 | 0.00 | 0.00 | 1018.3 | ||
| 20260506090114 | -17 | 0.0 | 0.0 | 0.00 | 0.00 | 0.00 | 1018.2 | ||
| 20260506085611 | -17 | 0.0 | 0.0 | 0.00 | 0.00 | 0.00 | 1018.4 | ||
| 20260506085108 | -17 | 0.0 | 0.0 | 0.00 | 0.00 | 0.00 | 1018.5 | ||
| 20260506084604 | -17 | 0.0 | 0.0 | 0.00 | 0.00 | 0.00 | 1018.3 | ||
| 20260506084101 | -17 | 0.0 | 0.0 | 0.00 | 0.00 | 0.00 | 1018.2 | ||
| 20260506083558 | -17 | 0.0 | 0.0 | 0.00 | 0.00 | 0.00 | 1018.4 | ||
| 20260506083055 | -17 | 0.0 | 0.0 | 0.00 | 0.00 | 0.00 | 1018.4 | ||
| 20260506082552 | -17 | 0.0 | 0.0 | 0.00 | 0.00 | 0.00 | 1018.5 | ||
| 20260506082048 | -17 | 0.0 | 0.0 | 0.00 | 0.00 | 0.00 | 1018.6 | ||
| 20260506081546 | -17 | 0.0 | 0.0 | 0.00 | 0.00 | 0.00 | 1018.6 | ||
| 20260506081043 | -17 | 0.0 | 0.0 | 0.00 | 0.00 | 0.00 | 1018.6 | ||
| 20260506080541 | -17 | 0.0 | 0.0 | 0.00 | 0.00 | 0.00 | 1018.6 | ||
| 20260506073524 | -17 | 0.0 | 0.0 | 0.00 | 0.00 | 0.00 | 1018.3 | ||
| 20260506073021 | -17 | 0.0 | 0.0 | 0.00 | 0.00 | 0.00 | 1018.4 | ||
| 20260506072518 | -17 | 0.0 | 0.0 | 0.00 | 0.00 | 0.00 | 1018.3 | ||
| 20260506072016 | -17 | 0.0 | 0.0 | 0.00 | 0.00 | 0.00 | 1018.2 | ||
| 20260506071514 | 11 | 124 | 0.0 | 0.0 | 0.00 | 0.00 | 0.00 | 89 | 1018.2 |
| 20260506071011 | 11 | 124 | 0.0 | 0.0 | 0.00 | 0.00 | 0.00 | 89 | 1018.1 |
| 20260506070508 | 11 | 124 | 0.0 | 0.0 | 0.00 | 0.00 | 0.00 | 88 | 1018.1 |
| 20260506062445 | 11 | 124 | 0.0 | 0.0 | 0.00 | 0.15 | 0.15 | 88 | 1018.0 |
| 20260506061941 | 11 | 124 | 0.0 | 0.0 | 0.00 | 0.15 | 0.15 | 87 | 1017.8 |
| 20260506061438 | 11 | 124 | 0.0 | 0.0 | 0.00 | 0.15 | 0.15 | 87 | 1017.6 |
| 20260506060936 | 11 | 124 | 0.0 | 0.0 | 0.00 | 0.15 | 0.15 | 86 | 1017.6 |
| 20260506060434 | 11 | 124 | 0.0 | 0.0 | 0.00 | 0.15 | 0.15 | 85 | 1017.8 |
| 20260506051406 | 12 | 124 | 0.0 | 0.0 | 0.00 | 0.15 | 0.15 | 80 | 1017.6 |
| 20260506050903 | 12 | 124 | 0.0 | 0.0 | 0.00 | 0.15 | 0.15 | 80 | 1017.5 |
| 20260506050400 | 13 | 124 | 0.0 | 0.0 | 0.00 | 0.15 | 0.15 | 79 | 1017.1 |
| 20260506044851 | 13 | 124 | 0.0 | 0.0 | 0.00 | 0.15 | 0.15 | 79 | 1017.2 |
| 20260506044349 | 13 | 124 | 0.0 | 0.0 | 0.00 | 0.15 | 0.15 | 78 | 1017.2 |
| 20260506043845 | 13 | 127 | 0.0 | 0.0 | 0.00 | 0.15 | 0.15 | 79 | 1016.8 |
| 20260506043342 | 13 | 127 | 0.0 | 0.0 | 0.00 | 0.15 | 0.15 | 78 | 1016.7 |
| 20260506042841 | 13 | 127 | 0.0 | 0.0 | 0.00 | 0.15 | 0.15 | 78 | 1016.6 |
| 20260506042340 | 13 | 127 | 0.0 | 0.0 | 0.00 | 0.15 | 0.15 | 78 | 1016.5 |
| 20260506041838 | 13 | 127 | 0.0 | 0.0 | 0.00 | 0.15 | 0.15 | 78 | 1016.6 |
| 20260506041335 | 13 | 127 | 0.0 | 0.0 | 0.00 | 0.15 | 0.15 | 78 | 1016.5 |
| 20260506040832 | 13 | 127 | 0.0 | 0.0 | 0.00 | 0.15 | 0.15 | 77 | 1016.4 |
| 20260506040329 | 13 | 130 | 0.0 | 0.0 | 0.00 | 0.15 | 0.15 | 78 | 1016.4 |
| 20260506035825 | 13 | 130 | 0.0 | 0.0 | 0.00 | 0.15 | 0.15 | 79 | 1016.4 |
| 20260506035323 | 13 | 130 | 0.0 | 0.0 | 0.00 | 0.15 | 0.15 | 77 | 1016.4 |
| 20260506034820 | 13 | 130 | 0.0 | 0.0 | 0.00 | 0.15 | 0.15 | 76 | 1016.2 |
| 20260506034317 | 13 | 130 | 0.0 | 0.0 | 0.00 | 0.15 | 0.15 | 76 | 1016.2 |
| 20260506033814 | 13 | 130 | 0.0 | 0.0 | 0.00 | 0.15 | 0.15 | 76 | 1016.0 |
| 20260506033310 | 13 | 130 | 0.0 | 0.0 | 0.00 | 0.15 | 0.15 | 76 | 1016.3 |
| 20260506032807 | 13 | 130 | 0.0 | 0.0 | 0.00 | 0.15 | 0.15 | 77 | 1016.1 |
| 20260506032306 | 14 | 130 | 0.0 | 0.0 | 0.00 | 0.15 | 0.15 | 77 | 1015.9 |
| 20260506031801 | 14 | 130 | 0.0 | 0.0 | 0.00 | 0.15 | 0.15 | 76 | 1015.8 |
| 20260506031258 | 14 | 130 | 0.0 | 0.0 | 0.00 | 0.15 | 0.15 | 75 | 1015.6 |
| 20260506030756 | 14 | 130 | 0.0 | 0.0 | 0.00 | 0.15 | 0.15 | 75 | 1015.6 |
| 20260506030254 | 14 | 130 | 0.0 | 0.0 | 0.00 | 0.15 | 0.15 | 76 | 1015.4 |
| 20260506025751 | 14 | 130 | 0.0 | 0.0 | 0.00 | 0.15 | 0.15 | 76 | 1015.9 |
| 20260506025247 | 14 | 130 | 0.0 | 0.0 | 0.00 | 0.15 | 0.15 | 75 | 1015.5 |
| 20260506024744 | 14 | 130 | 0.0 | 0.0 | 0.00 | 0.15 | 0.15 | 74 | 1015.6 |
| 20260506024241 | 14 | 130 | 0.0 | 0.0 | 0.00 | 0.15 | 0.15 | 74 | 1015.7 |
| 20260506023737 | 14 | 130 | 0.0 | 0.0 | 0.00 | 0.15 | 0.15 | 74 | 1015.4 |
| 20260506023234 | 14 | 131 | 0.0 | 0.0 | 0.00 | 0.15 | 0.15 | 74 | 1015.3 |
| 20260506022731 | 14 | 133 | 0.0 | 0.0 | 0.00 | 0.15 | 0.15 | 75 | 1015.6 |
| 20260506022229 | 14 | 133 | 0.0 | 0.0 | 0.00 | 0.15 | 0.15 | 74 | 1015.4 |
| 20260506021726 | 15 | 137 | 0.0 | 0.0 | 0.00 | 0.15 | 0.15 | 74 | 1015.4 |
| 20260506021223 | 15 | 142 | 0.0 | 0.0 | 0.00 | 0.15 | 0.15 | 72 | 1015.2 |
| 20260506020720 | 15 | 142 | 0.0 | 0.0 | 0.00 | 0.15 | 0.15 | 72 | 1015.3 |
| 20260506020218 | 15 | 146 | 0.0 | 0.0 | 0.00 | 0.15 | 0.15 | 71 | 1015.5 |
| 20260506015715 | 15 | 146 | 0.0 | 0.0 | 0.00 | 0.15 | 0.15 | 71 | 1015.2 |
| 20260506015213 | 16 | 147 | 0.0 | 0.0 | 0.00 | 0.15 | 0.15 | 70 | 1015.0 |
| 20260506014710 | 16 | 146 | 0.0 | 0.0 | 0.00 | 0.15 | 0.15 | 69 | 1014.9 |
| 20260506014205 | 16 | 147 | 0.0 | 0.0 | 0.00 | 0.15 | 0.15 | 68 | 1015.0 |
| 20260506013703 | 16 | 114 | 0.0 | 0.0 | 0.00 | 0.15 | 0.15 | 68 | 1015.0 |
| 20260506013200 | 16 | 151 | 0.0 | 0.0 | 0.00 | 0.15 | 0.15 | 67 | 1014.8 |
| 20260506012656 | 16 | 150 | 0.0 | 0.0 | 0.00 | 0.15 | 0.15 | 68 | 1015.1 |
| 20260506012153 | 16 | 229 | 0.0 | 0.0 | 0.00 | 0.15 | 0.15 | 68 | 1015.0 |
| 20260506011651 | 16 | 114 | 0.0 | 0.0 | 0.00 | 0.15 | 0.15 | 67 | 1015.1 |
| 20260506011147 | 16 | 114 | 0.0 | 0.0 | 0.00 | 0.15 | 0.15 | 68 | 1015.1 |
| 20260506010646 | 16 | 112 | 0.0 | 0.0 | 0.00 | 0.15 | 0.15 | 68 | 1015.0 |
| 20260506010142 | 16 | 112 | 0.0 | 0.0 | 0.00 | 0.15 | 0.15 | 68 | 1015.1 |
| 20260506005639 | 16 | 112 | 0.0 | 0.0 | 0.00 | 0.15 | 0.15 | 68 | 1014.9 |
| 20260506005136 | 16 | 114 | 0.0 | 0.0 | 0.00 | 0.15 | 0.15 | 69 | 1014.7 |
| 20260506004632 | 16 | 106 | 0.0 | 0.0 | 0.00 | 0.15 | 0.15 | 70 | 1014.8 |
| 20260506004130 | 16 | 106 | 0.0 | 0.0 | 0.00 | 0.15 | 0.15 | 71 | 1014.9 |
| 20260506003626 | 16 | 107 | 0.0 | 0.0 | 0.00 | 0.15 | 0.15 | 71 | 1014.8 |
| 20260506003122 | 16 | 105 | 0.0 | 0.0 | 0.00 | 0.15 | 0.15 | 72 | 1014.8 |
| 20260506002618 | 16 | 105 | 0.0 | 0.0 | 0.00 | 0.15 | 0.15 | 71 | 1014.7 |
| 20260506002114 | 16 | 105 | 0.0 | 0.0 | 0.00 | 0.15 | 0.15 | 72 | 1014.7 |
| 20260506001610 | 16 | 105 | 0.0 | 0.0 | 0.00 | 0.15 | 0.15 | 73 | 1014.9 |
| 20260506001108 | 16 | 105 | 0.0 | 0.0 | 0.00 | 0.15 | 0.15 | 71 | 1014.6 |
| 20260506000605 | 16 | 106 | 0.0 | 0.0 | 0.00 | 0.15 | 0.15 | 71 | 1014.5 |
| 20260505235600 | 16 | 106 | 0.0 | 0.0 | 0.00 | 0.15 | 0.15 | 70 | 1014.6 |
| 20260505235057 | 16 | 105 | 0.0 | 0.0 | 0.00 | 0.15 | 0.15 | 72 | 1014.7 |
| 20260505234554 | 16 | 105 | 0.0 | 0.0 | 0.00 | 0.15 | 0.15 | 71 | 1014.7 |
| 20260505234050 | 16 | 105 | 0.0 | 0.0 | 0.00 | 0.15 | 0.15 | 73 | 1014.7 |
| 20260505233548 | 16 | 105 | 0.0 | 0.0 | 0.00 | 0.15 | 0.15 | 73 | 1014.6 |
| 20260505233045 | 16 | 105 | 0.0 | 0.0 | 0.00 | 0.15 | 0.15 | 73 | 1014.8 |
| 20260505232543 | 16 | 151 | 0.0 | 0.0 | 0.00 | 0.15 | 0.15 | 70 | 1015.0 |
| 20260505232041 | 16 | 151 | 0.0 | 0.0 | 0.00 | 0.15 | 0.15 | 70 | 1014.9 |
| 20260505231537 | 16 | 148 | 0.0 | 0.0 | 0.00 | 0.15 | 0.15 | 71 | 1014.7 |
| 20260505231036 | 16 | 152 | 0.0 | 0.0 | 0.00 | 0.15 | 0.15 | 70 | 1014.9 |
| 20260505230533 | 16 | 126 | 0.0 | 0.0 | 0.00 | 0.15 | 0.15 | 70 | 1014.9 |
| 20260505230029 | 16 | 128 | 0.0 | 0.0 | 0.00 | 0.15 | 0.15 | 69 | 1014.7 |
| 20260505225526 | 16 | 112 | 0.0 | 0.0 | 0.00 | 0.15 | 0.15 | 71 | 1015.0 |
| 20260505225022 | 16 | 112 | 0.0 | 0.0 | 0.00 | 0.15 | 0.15 | 73 | 1014.9 |
| 20260505224519 | 16 | 112 | 0.0 | 0.0 | 0.00 | 0.15 | 0.15 | 73 | 1015.1 |
| 20260505224016 | 15 | 112 | 0.0 | 0.0 | 0.00 | 0.15 | 0.15 | 71 | 1015.0 |
| 20260505223514 | 15 | 112 | 0.0 | 0.0 | 0.00 | 0.15 | 0.15 | 73 | 1015.2 |
| 20260505223010 | 15 | 112 | 0.0 | 0.0 | 0.00 | 0.15 | 0.15 | 72 | 1015.0 |
| 20260505222506 | 15 | 112 | 0.0 | 0.0 | 0.00 | 0.15 | 0.15 | 74 | 1015.0 |
| 20260505222002 | 15 | 112 | 0.0 | 0.0 | 0.00 | 0.15 | 0.15 | 73 | 1014.8 |
| 20260505221459 | 15 | 111 | 0.0 | 0.0 | 0.00 | 0.15 | 0.15 | 74 | 1015.0 |
| 20260505220956 | 15 | 112 | 0.0 | 0.0 | 0.00 | 0.15 | 0.15 | 74 | 1015.3 |
| 20260505220453 | 15 | 110 | 0.0 | 0.0 | 0.00 | 0.15 | 0.15 | 73 | 1015.2 |
| 20260505215951 | 15 | 112 | 0.0 | 0.0 | 0.00 | 0.15 | 0.15 | 73 | 1015.3 |
| 20260505215449 | 15 | 108 | 0.0 | 0.0 | 0.00 | 0.15 | 0.15 | 75 | 1015.1 |
| 20260505214946 | 15 | 112 | 0.0 | 0.0 | 0.00 | 0.15 | 0.15 | 74 | 1015.1 |
| 20260505214444 | 15 | 112 | 0.0 | 0.0 | 0.00 | 0.15 | 0.15 | 76 | 1015.2 |
| 20260505213941 | 15 | 112 | 0.0 | 0.0 | 0.00 | 0.15 | 0.15 | 75 | 1015.1 |
| 20260505213439 | 15 | 111 | 0.0 | 0.0 | 0.00 | 0.15 | 0.15 | 77 | 1015.0 |
| 20260505212935 | 15 | 111 | 0.0 | 0.0 | 0.00 | 0.15 | 0.15 | 77 | 1015.1 |
| 20260505212432 | 15 | 111 | 0.0 | 0.0 | 0.00 | 0.15 | 0.15 | 76 | 1015.4 |
| 20260505211928 | 15 | 122 | 0.0 | 0.0 | 0.00 | 0.15 | 0.15 | 77 | 1015.3 |
| 20260505211426 | 15 | 153 | 0.0 | 0.0 | 0.00 | 0.15 | 0.15 | 76 | 1015.4 |
| 20260505210922 | 15 | 155 | 0.0 | 0.0 | 0.00 | 0.15 | 0.15 | 77 | 1015.3 |
| 20260505210420 | 15 | 155 | 0.0 | 0.0 | 0.00 | 0.15 | 0.15 | 76 | 1015.1 |
| 20260505205916 | 15 | 154 | 1.6 | 1.6 | 0.00 | 0.15 | 0.15 | 75 | 1015.3 |
| 20260505205415 | 14 | 114 | 0.0 | 0.0 | 0.00 | 0.15 | 0.15 | 79 | 1015.2 |
| 20260505204911 | 14 | 109 | 0.0 | 0.0 | 0.00 | 0.15 | 0.15 | 75 | 1015.4 |
| 20260505204409 | 14 | 106 | 0.0 | 0.0 | 0.00 | 0.15 | 0.15 | 78 | 1015.3 |
| 20260505203906 | 14 | 106 | 0.0 | 0.0 | 0.00 | 0.15 | 0.15 | 78 | 1015.4 |
| 20260505203402 | 14 | 106 | 0.0 | 0.0 | 0.00 | 0.15 | 0.15 | 79 | 1015.4 |
| 20260505202859 | 14 | 108 | 0.0 | 0.0 | 0.00 | 0.15 | 0.15 | 79 | 1015.4 |
| 20260505202355 | 14 | 108 | 0.0 | 0.0 | 0.00 | 0.15 | 0.15 | 79 | 1015.4 |
| 20260505201851 | 14 | 108 | 0.0 | 0.0 | 0.00 | 0.15 | 0.15 | 78 | 1015.4 |
| 20260505201349 | 14 | 109 | 0.0 | 0.0 | 0.00 | 0.15 | 0.15 | 77 | 1015.7 |
| 20260505200847 | 14 | 94 | 0.0 | 0.0 | 0.00 | 0.15 | 0.15 | 78 | 1015.5 |
| 20260505200344 | 15 | 108 | 0.0 | 6.4 | 0.00 | 0.15 | 0.15 | 77 | 1015.4 |
| 20260505195839 | 15 | 108 | 0.0 | 0.0 | 0.00 | 0.15 | 0.15 | 77 | 1015.4 |
| 20260505195337 | 15 | 107 | 0.0 | 0.0 | 0.00 | 0.15 | 0.15 | 77 | 1015.5 |
| 20260505194834 | 15 | 70 | 0.0 | 0.0 | 0.00 | 0.15 | 0.15 | 74 | 1015.4 |
| 20260505194331 | 15 | 104 | 0.0 | 0.0 | 0.00 | 0.15 | 0.15 | 75 | 1015.3 |
| 20260505193826 | 15 | 104 | 0.0 | 0.0 | 0.00 | 0.15 | 0.15 | 77 | 1015.7 |
| 20260505193324 | 14 | 101 | 0.0 | 0.0 | 0.00 | 0.15 | 0.15 | 76 | 1015.5 |
| 20260505192822 | 15 | 123 | 0.0 | 1.6 | 0.00 | 0.15 | 0.15 | 76 | 1015.1 |
| 20260505192320 | 15 | 101 | 0.0 | 1.6 | 0.00 | 0.15 | 0.15 | 77 | 1015.4 |
| 20260505191817 | 15 | 124 | 0.0 | 1.6 | 0.00 | 0.15 | 0.15 | 75 | 1015.5 |
| 20260505191316 | 15 | 143 | 0.0 | 0.0 | 0.00 | 0.15 | 0.15 | 75 | 1015.4 |